Time;durP1;ratioP1;P1;durP2;ratioP2;P2;SDS_P1;SDS_P2;PMS_P1;PMS_P2;Temp;Humidity;BMP_temperature;BMP_pressure;BME280_temperature;BME280_humidity;BME280_pressure;Samples;Min_cycle;Max_cycle;Signal;HPM_P1;HPM_P2
2023/09/22 00:01:43;;;;;;;92.87;86.57;;;;;;;;;;5006597;28;20029;-61
2023/09/22 00:04:11;;;;;;;79.72;74.95;;;;;;;;;;5010275;28;20029;-62
2023/09/22 00:06:36;;;;;;;47.60;44.63;;;;;;;;;;5008214;28;20025;-61
2023/09/22 00:09:02;;;;;;;139.33;130.10;;;;;;;;;;5007601;28;20029;-60
2023/09/22 00:11:27;;;;;;;85.70;79.72;;;;;;;;;;5005862;28;20029;-60
2023/09/22 00:13:52;;;;;;;50.67;47.20;;;;;;;;;;5011011;28;20030;-60
2023/09/22 00:16:17;;;;;;;49.67;46.47;;;;;;;;;;4972443;28;1028009;-60
2023/09/22 00:18:42;;;;;;;99.80;93.07;;;;;;;;;;5006863;28;20034;-60
2023/09/22 00:21:08;;;;;;;108.68;101.47;;;;;;;;;;5007948;28;20438;-60
2023/09/22 00:23:33;;;;;;;83.25;77.55;;;;;;;;;;5011196;28;20029;-61
2023/09/22 00:25:59;;;;;;;37.03;34.33;;;;;;;;;;5011205;28;20032;-60
2023/09/22 00:28:24;;;;;;;82.10;76.07;;;;;;;;;;5009354;28;20449;-61
2023/09/22 00:30:49;;;;;;;50.97;47.67;;;;;;;;;;5001931;28;20486;-61
2023/09/22 00:33:14;;;;;;;83.07;77.30;;;;;;;;;;5008415;28;20079;-61
2023/09/22 00:35:39;;;;;;;96.68;90.80;;;;;;;;;;5010458;28;20032;-61
2023/09/22 00:38:06;;;;;;;127.32;118.25;;;;;;;;;;5010573;28;20113;-60
2023/09/22 00:40:31;;;;;;;111.82;104.03;;;;;;;;;;5010740;28;20036;-60
2023/09/22 00:43:06;;;;;;;54.90;51.47;;;;;;;;;;5011183;28;20029;-61
2023/09/22 00:45:32;;;;;;;56.85;52.97;;;;;;;;;;5009574;28;20018;-59
2023/09/22 00:47:57;;;;;;;52.38;49.05;;;;;;;;;;5009736;28;20030;-60
2023/09/22 00:50:22;;;;;;;41.90;38.97;;;;;;;;;;5010530;28;20025;-60
2023/09/22 00:52:47;;;;;;;82.40;77.20;;;;;;;;;;5010901;28;20428;-60
2023/09/22 00:55:12;;;;;;;86.37;81.07;;;;;;;;;;5002845;28;20030;-60
2023/09/22 00:57:38;;;;;;;65.13;60.70;;;;;;;;;;5010874;28;20029;-60
2023/09/22 01:00:04;;;;;;;36.22;33.72;;;;;;;;;;5010286;28;20021;-60
2023/09/22 01:02:30;;;;;;;53.00;49.72;;;;;;;;;;5008836;28;20041;-60
2023/09/22 01:04:55;;;;;;;84.20;78.60;;;;;;;;;;5010287;28;20108;-60
2023/09/22 01:07:20;;;;;;;56.60;52.83;;;;;;;;;;5008108;28;20030;-60
2023/09/22 01:09:45;;;;;;;58.60;54.70;;;;;;;;;;5010435;28;20110;-60
2023/09/22 01:12:10;;;;;;;48.58;45.25;;;;;;;;;;5010869;28;20025;-60
2023/09/22 01:14:36;;;;;;;118.50;109.93;;;;;;;;;;5008520;28;20025;-60
2023/09/22 01:17:01;;;;;;;56.20;52.58;;;;;;;;;;5010194;28;20124;-59
2023/09/22 01:19:26;;;;;;;161.35;149.63;;;;;;;;;;5010106;28;20026;-60
2023/09/22 01:21:51;;;;;;;56.72;53.00;;;;;;;;;;5011096;28;20022;-61
2023/09/22 01:24:17;;;;;;;79.80;74.13;;;;;;;;;;5004775;28;20068;-61
2023/09/22 01:26:42;;;;;;;88.88;83.07;;;;;;;;;;5009777;28;20041;-61
2023/09/22 01:29:07;;;;;;;64.20;60.03;;;;;;;;;;5010165;28;20062;-61
2023/09/22 01:31:33;;;;;;;89.03;82.28;;;;;;;;;;5010744;28;20071;-61
2023/09/22 01:33:59;;;;;;;48.55;45.38;;;;;;;;;;5010489;28;20529;-61
2023/09/22 01:36:25;;;;;;;78.88;73.82;;;;;;;;;;5010585;28;20050;-61
2023/09/22 01:38:50;;;;;;;42.45;39.63;;;;;;;;;;5009247;28;20018;-61
2023/09/22 01:41:15;;;;;;;73.80;68.70;;;;;;;;;;5009467;28;20470;-61
2023/09/22 01:43:41;;;;;;;56.13;52.47;;;;;;;;;;5006832;28;20406;-61
2023/09/22 01:46:06;;;;;;;134.70;125.47;;;;;;;;;;5010338;28;20034;-61
2023/09/22 01:48:32;;;;;;;116.97;109.30;;;;;;;;;;5010828;28;20045;-62
2023/09/22 01:51:01;;;;;;;75.20;70.30;;;;;;;;;;5010289;28;20068;-61
2023/09/22 01:53:26;;;;;;;111.57;103.85;;;;;;;;;;5010694;28;20022;-61
2023/09/22 01:55:51;;;;;;;48.40;45.30;;;;;;;;;;5009654;28;20022;-61
2023/09/22 01:58:16;;;;;;;84.20;78.60;;;;;;;;;;5010110;28;20117;-61
2023/09/22 02:00:42;;;;;;;79.57;74.80;;;;;;;;;;5005538;28;20101;-61
2023/09/22 02:03:07;;;;;;;59.72;55.90;;;;;;;;;;5010510;28;20022;-61
2023/09/22 02:05:32;;;;;;;80.97;76.10;;;;;;;;;;5010285;28;20393;-61
2023/09/22 02:07:57;;;;;;;54.90;51.53;;;;;;;;;;5004680;28;20026;-61
2023/09/22 02:10:22;;;;;;;55.72;52.08;;;;;;;;;;5007426;28;20018;-62
2023/09/22 02:12:48;;;;;;;108.43;101.37;;;;;;;;;;5004500;28;20021;-62
2023/09/22 02:15:13;;;;;;;78.73;73.73;;;;;;;;;;5006047;28;20026;-61
2023/09/22 02:17:42;;;;;;;62.85;58.88;;;;;;;;;;5030090;28;20105;-61
2023/09/22 02:22:43;;;;;;;62.83;59.05;;;;;;;;;;5033855;28;20389;-62
2023/09/22 02:25:08;;;;;;;113.22;106.18;;;;;;;;;;5030236;28;20392;-61
2023/09/22 02:27:34;;;;;;;68.37;64.20;;;;;;;;;;5023964;28;20014;-61
2023/09/22 02:29:59;;;;;;;103.80;96.75;;;;;;;;;;5033312;28;20446;-61
2023/09/22 02:32:26;;;;;;;89.57;84.10;;;;;;;;;;5021863;28;20030;-60
2023/09/22 02:34:52;;;;;;;54.70;51.17;;;;;;;;;;5014545;28;20029;-61
2023/09/22 02:37:17;;;;;;;60.97;57.30;;;;;;;;;;5016622;28;20026;-60
2023/09/22 02:39:43;;;;;;;67.73;63.87;;;;;;;;;;5016970;28;20045;-61
2023/09/22 02:42:08;;;;;;;52.78;49.55;;;;;;;;;;5024289;28;20489;-61
2023/09/22 02:44:34;;;;;;;92.37;86.47;;;;;;;;;;5024914;28;20022;-62
2023/09/22 02:47:00;;;;;;;82.32;76.70;;;;;;;;;;5032326;28;20041;-61
2023/09/22 02:49:26;;;;;;;97.43;91.20;;;;;;;;;;5023849;28;20470;-61
2023/09/22 02:51:51;;;;;;;;;;;;;;;;;;5014583;28;20018;-60
2023/09/22 02:54:17;;;;;;;102.90;96.20;;;;;;;;;;5012603;28;20015;-61
2023/09/22 02:56:42;;;;;;;80.25;75.35;;;;;;;;;;5024927;28;20448;-60
2023/09/22 02:59:07;;;;;;;86.90;81.43;;;;;;;;;;5032658;28;20034;-60
2023/09/22 03:01:34;;;;;;;140.00;130.37;;;;;;;;;;5019077;28;20033;-60
2023/09/22 03:04:00;;;;;;;68.90;64.93;;;;;;;;;;5012133;28;20025;-61
2023/09/22 03:06:25;;;;;;;109.78;102.38;;;;;;;;;;5011854;28;20025;-60
2023/09/22 03:08:50;;;;;;;57.90;54.57;;;;;;;;;;5009856;28;20531;-60
2023/09/22 03:11:15;;;;;;;80.67;75.70;;;;;;;;;;5011432;28;20477;-60
2023/09/22 03:13:40;;;;;;;80.87;75.20;;;;;;;;;;5010200;28;20033;-60
2023/09/22 03:16:06;;;;;;;71.35;67.18;;;;;;;;;;5009010;28;20025;-59
2023/09/22 03:18:31;;;;;;;101.20;94.80;;;;;;;;;;5007520;28;20026;-60
2023/09/22 03:20:56;;;;;;;87.77;82.87;;;;;;;;;;5000819;28;20057;-60
2023/09/22 03:23:23;;;;;;;79.05;73.68;;;;;;;;;;4993651;28;20089;-60
2023/09/22 03:25:49;;;;;;;95.65;89.95;;;;;;;;;;5013344;28;20132;-60
2023/09/22 03:28:15;;;;;;;72.13;67.80;;;;;;;;;;5004383;28;20026;-60
2023/09/22 03:30:40;;;;;;;131.40;123.80;;;;;;;;;;4991958;28;20109;-59
2023/09/22 03:33:06;;;;;;;110.30;103.87;;;;;;;;;;5005093;28;20113;-60
2023/09/22 03:35:31;;;;;;;139.73;130.00;;;;;;;;;;5010307;28;20445;-60
2023/09/22 03:37:57;;;;;;;140.90;130.35;;;;;;;;;;5006042;28;20021;-60
2023/09/22 03:40:32;;;;;;;121.75;112.85;;;;;;;;;;5011395;28;20045;-60
2023/09/22 03:43:01;;;;;;;140.32;130.90;;;;;;;;;;5011194;28;20064;-60
2023/09/22 03:45:26;;;;;;;161.07;148.73;;;;;;;;;;5010407;28;20022;-59
2023/09/22 03:47:51;;;;;;;147.87;138.03;;;;;;;;;;5011986;28;20033;-59
2023/09/22 03:50:17;;;;;;;82.82;77.28;;;;;;;;;;5011601;28;20528;-59
2023/09/22 03:52:42;;;;;;;69.85;65.70;;;;;;;;;;5012294;28;20068;-61
2023/09/22 03:55:11;;;;;;;68.93;64.75;;;;;;;;;;5011823;28;20473;-58
2023/09/22 03:57:37;;;;;;;131.30;123.00;;;;;;;;;;5010267;28;20111;-61
2023/09/22 04:00:15;;;;;;;81.63;77.07;;;;;;;;;;5011356;28;20053;-61
2023/09/22 04:02:40;;;;;;;140.35;130.93;;;;;;;;;;5011993;28;20021;-59
2023/09/22 04:05:05;;;;;;;72.20;68.27;;;;;;;;;;5011733;28;20377;-60
2023/09/22 04:07:31;;;;;;;196.77;184.60;;;;;;;;;;5009443;28;20043;-61
2023/09/22 04:09:56;;;;;;;101.40;95.03;;;;;;;;;;5014453;28;20028;-61
2023/09/22 04:12:21;;;;;;;80.55;75.68;;;;;;;;;;5012134;28;20033;-61
2023/09/22 04:14:46;;;;;;;142.48;132.13;;;;;;;;;;5004380;28;20441;-62
2023/09/22 04:17:12;;;;;;;116.37;108.83;;;;;;;;;;5010244;28;20030;-58
2023/09/22 04:19:37;;;;;;;94.73;88.93;;;;;;;;;;5009414;28;20018;-61
2023/09/22 04:22:02;;;;;;;127.80;118.05;;;;;;;;;;5004671;28;20014;-61
2023/09/22 04:24:34;;;;;;;82.17;76.87;;;;;;;;;;5011119;28;20045;-60
2023/09/22 04:27:08;;;;;;;69.43;65.18;;;;;;;;;;5010278;28;20018;-60
2023/09/22 04:29:36;;;;;;;128.27;119.78;;;;;;;;;;5009956;28;20018;-61
2023/09/22 04:32:03;;;;;;;129.45;120.70;;;;;;;;;;5002393;28;20481;-60
2023/09/22 04:34:28;;;;;;;127.88;119.13;;;;;;;;;;4998453;28;20080;-60
2023/09/22 04:36:53;;;;;;;76.93;72.57;;;;;;;;;;5003000;28;20038;-58
2023/09/22 04:39:21;;;;;;;83.07;78.33;;;;;;;;;;4995187;28;20034;-59
2023/09/22 04:41:46;;;;;;;148.45;137.55;;;;;;;;;;5001481;28;20395;-60
2023/09/22 04:44:12;;;;;;;84.15;79.55;;;;;;;;;;5000553;28;20029;-59
2023/09/22 04:46:37;;;;;;;131.03;122.10;;;;;;;;;;5007491;28;20053;-60
2023/09/22 04:49:02;;;;;;;88.00;82.47;;;;;;;;;;5013971;28;20460;-60
2023/09/22 04:51:27;;;;;;;89.77;84.53;;;;;;;;;;5004750;28;20572;-60
2023/09/22 04:53:52;;;;;;;70.40;66.17;;;;;;;;;;4995811;28;20025;-59
2023/09/22 04:56:19;;;;;;;110.13;103.33;;;;;;;;;;5014049;28;20022;-59
2023/09/22 04:58:46;;;;;;;124.05;115.82;;;;;;;;;;5017438;28;20448;-60
2023/09/22 05:01:12;;;;;;;103.70;96.95;;;;;;;;;;5002284;28;20103;-58
2023/09/22 05:03:37;;;;;;;142.77;132.50;;;;;;;;;;5011466;28;20038;-59
2023/09/22 05:06:06;;;;;;;102.97;95.97;;;;;;;;;;5023044;28;20026;-58
2023/09/22 05:08:31;;;;;;;107.15;99.78;;;;;;;;;;5029524;28;20428;-59
2023/09/22 05:10:57;;;;;;;182.20;170.30;;;;;;;;;;5013873;28;20072;-61
2023/09/22 05:13:22;;;;;;;111.80;103.55;;;;;;;;;;5011245;28;20037;-58
2023/09/22 05:15:48;;;;;;;160.67;147.43;;;;;;;;;;5011087;28;20053;-59
2023/09/22 05:18:13;;;;;;;147.75;137.35;;;;;;;;;;5009224;28;20370;-61
2023/09/22 05:20:42;;;;;;;84.68;79.43;;;;;;;;;;5010443;28;20080;-61
2023/09/22 05:23:10;;;;;;;128.40;116.53;;;;;;;;;;5025847;28;20014;-60
2023/09/22 05:25:39;;;;;;;108.68;100.00;;;;;;;;;;5030742;28;20014;-59
2023/09/22 05:28:05;;;;;;;241.05;225.32;;;;;;;;;;5030741;28;20018;-60
2023/09/22 05:30:31;;;;;;;139.73;130.23;;;;;;;;;;5030394;28;20018;-60
2023/09/22 05:32:56;;;;;;;107.75;100.47;;;;;;;;;;5024505;28;20022;-59
2023/09/22 05:35:21;;;;;;;75.37;70.63;;;;;;;;;;5019382;28;20018;-60
2023/09/22 05:37:47;;;;;;;111.00;103.90;;;;;;;;;;5027973;28;20436;-59
2023/09/22 05:40:12;;;;;;;96.45;90.55;;;;;;;;;;5008941;28;20456;-58
2023/09/22 05:42:38;;;;;;;207.85;195.23;;;;;;;;;;5018354;28;20025;-59
2023/09/22 05:45:03;;;;;;;104.43;98.03;;;;;;;;;;5025262;28;20022;-58
2023/09/22 05:47:29;;;;;;;162.85;150.80;;;;;;;;;;5011957;28;20036;-59
2023/09/22 05:49:54;;;;;;;;;;;;;;;;;;5012548;28;20080;-58
2023/09/22 05:52:20;;;;;;;59.85;56.30;;;;;;;;;;5012147;28;19913;-59
2023/09/22 05:54:46;;;;;;;107.78;100.63;;;;;;;;;;5005984;28;20018;-58
2023/09/22 05:57:11;;;;;;;;;;;;;;;;;;5015187;28;20014;-59
2023/09/22 05:59:37;;;;;;;58.38;55.20;;;;;;;;;;5012820;28;19913;-58
2023/09/22 06:02:02;;;;;;;73.20;68.32;;;;;;;;;;5012086;28;20470;-58
2023/09/22 06:04:30;;;;;;;47.50;44.60;;;;;;;;;;5012330;28;20057;-59
2023/09/22 06:06:56;;;;;;;104.28;97.88;;;;;;;;;;5008111;28;20104;-60
2023/09/22 06:09:21;;;;;;;131.38;122.25;;;;;;;;;;5013021;28;20120;-60
2023/09/22 06:11:46;;;;;;;135.43;127.03;;;;;;;;;;5013203;28;20429;-60
2023/09/22 06:14:12;;;;;;;126.13;117.83;;;;;;;;;;5011103;28;20014;-59
2023/09/22 06:16:37;;;;;;;65.60;61.85;;;;;;;;;;4999054;28;20035;-60
2023/09/22 06:19:03;;;;;;;70.50;66.53;;;;;;;;;;4999062;28;20432;-60
2023/09/22 06:21:30;;;;;;;119.05;111.45;;;;;;;;;;5014636;28;20422;-60
2023/09/22 06:23:56;;;;;;;67.38;63.58;;;;;;;;;;5013235;28;20326;-60
2023/09/22 06:26:21;;;;;;;77.07;72.40;;;;;;;;;;5012563;28;20433;-60
2023/09/22 06:28:47;;;;;;;62.28;58.17;;;;;;;;;;5012315;28;20027;-60
2023/09/22 06:31:13;;;;;;;91.75;85.40;;;;;;;;;;5021041;28;20022;-60
2023/09/22 06:33:39;;;;;;;100.57;94.50;;;;;;;;;;5022428;28;20028;-61
2023/09/22 06:36:04;;;;;;;76.55;71.65;;;;;;;;;;5013584;28;20018;-58
2023/09/22 06:38:33;;;;;;;74.75;70.53;;;;;;;;;;5013303;28;20400;-58
2023/09/22 06:40:58;;;;;;;50.03;47.25;;;;;;;;;;5013095;28;20022;-58
2023/09/22 06:43:24;;;;;;;86.65;81.88;;;;;;;;;;5013174;28;20083;-59
2023/09/22 06:45:52;;;;;;;52.78;49.72;;;;;;;;;;5023313;28;20029;-59
2023/09/22 06:48:18;;;;;;;51.33;48.42;;;;;;;;;;5032976;28;20020;-59
2023/09/22 06:50:43;;;;;;;104.00;97.88;;;;;;;;;;5032465;28;20045;-59
2023/09/22 06:53:09;;;;;;;60.05;56.45;;;;;;;;;;5032165;28;20508;-59
2023/09/22 06:55:34;;;;;;;65.33;61.40;;;;;;;;;;5032360;28;20091;-59
2023/09/22 06:57:59;;;;;;;158.20;147.30;;;;;;;;;;5007707;28;20044;-60
2023/09/22 07:00:28;;;;;;;74.28;69.60;;;;;;;;;;5017000;28;20091;-58
2023/09/22 07:02:53;;;;;;;120.80;112.63;;;;;;;;;;5016066;28;20156;-60
2023/09/22 07:05:19;;;;;;;55.58;52.28;;;;;;;;;;5024942;28;20017;-58
2023/09/22 07:07:44;;;;;;;81.53;76.25;;;;;;;;;;5032957;28;20057;-59
2023/09/22 07:10:10;;;;;;;54.60;51.08;;;;;;;;;;5032507;28;20040;-59
2023/09/22 07:12:36;;;;;;;133.93;124.57;;;;;;;;;;5030659;28;20419;-61
2023/09/22 07:15:01;;;;;;;;;;;;;;;;;;5024873;28;20032;-60
2023/09/22 07:17:27;;;;;;;101.72;95.40;;;;;;;;;;5032756;28;19924;-59
2023/09/22 07:19:52;;;;;;;97.07;90.93;;;;;;;;;;5032245;28;20029;-58
2023/09/22 07:22:17;;;;;;;94.87;88.67;;;;;;;;;;5032737;28;20025;-58
2023/09/22 07:24:42;;;;;;;85.95;79.97;;;;;;;;;;5033062;28;20496;-61
2023/09/22 07:27:07;;;;;;;43.10;40.43;;;;;;;;;;5030234;28;20040;-59
2023/09/22 07:29:32;;;;;;;94.88;88.40;;;;;;;;;;5023726;28;20500;-60
2023/09/22 07:31:58;;;;;;;47.37;44.57;;;;;;;;;;5032337;28;20053;-58
2023/09/22 07:34:23;;;;;;;127.00;118.67;;;;;;;;;;5032590;28;20451;-59
2023/09/22 07:36:48;;;;;;;106.97;100.27;;;;;;;;;;5016848;28;20021;-59
2023/09/22 07:39:13;;;;;;;85.22;79.00;;;;;;;;;;5012181;28;20037;-58
2023/09/22 07:41:38;;;;;;;123.93;115.60;;;;;;;;;;5019913;28;20363;-59
2023/09/22 07:44:04;;;;;;;86.30;81.20;;;;;;;;;;5027243;28;20049;-61
2023/09/22 07:46:29;;;;;;;96.78;90.60;;;;;;;;;;5032251;28;20508;-59
2023/09/22 07:48:54;;;;;;;93.27;87.03;;;;;;;;;;5031788;28;20048;-59
2023/09/22 07:51:20;;;;;;;107.78;101.57;;;;;;;;;;5032257;28;20469;-59
2023/09/22 07:53:46;;;;;;;109.22;102.20;;;;;;;;;;5032127;28;20228;-60
2023/09/22 07:56:12;;;;;;;113.97;106.07;;;;;;;;;;5021200;28;20071;-58
2023/09/22 07:58:40;;;;;;;167.10;155.82;;;;;;;;;;5012618;28;20033;-60
2023/09/22 08:01:07;;;;;;;95.22;88.57;;;;;;;;;;5011842;28;20022;-61
2023/09/22 08:03:34;;;;;;;168.63;154.90;;;;;;;;;;5012421;28;20532;-60
2023/09/22 08:06:00;;;;;;;71.22;66.68;;;;;;;;;;5012001;28;20022;-59
2023/09/22 08:08:26;;;;;;;70.90;66.65;;;;;;;;;;5009502;28;20040;-60
2023/09/22 08:10:53;;;;;;;96.43;90.50;;;;;;;;;;5020235;28;20518;-59
2023/09/22 08:13:21;;;;;;;103.70;96.90;;;;;;;;;;5029011;28;20049;-57
2023/09/22 08:15:46;;;;;;;83.68;78.85;;;;;;;;;;5012572;28;20033;-58
2023/09/22 08:18:12;;;;;;;113.70;106.15;;;;;;;;;;5011746;28;20028;-60
2023/09/22 08:20:38;;;;;;;;;;;;;;;;;;5012848;28;20599;-60
2023/09/22 08:23:03;;;;;;;68.63;64.70;;;;;;;;;;5011016;28;20344;-58
2023/09/22 08:25:28;;;;;;;63.65;59.90;;;;;;;;;;5021273;28;20018;-60
2023/09/22 08:27:54;;;;;;;111.85;103.78;;;;;;;;;;5030317;28;20496;-60
2023/09/22 08:30:19;;;;;;;159.65;148.73;;;;;;;;;;5030992;28;20385;-60
2023/09/22 08:32:45;;;;;;;149.98;139.90;;;;;;;;;;5031475;28;20021;-60
2023/09/22 08:35:11;;;;;;;172.05;160.90;;;;;;;;;;5019352;28;20481;-60
2023/09/22 08:37:38;;;;;;;131.57;123.07;;;;;;;;;;5013017;28;20022;-59
2023/09/22 08:40:08;;;;;;;99.22;92.97;;;;;;;;;;5022108;28;20037;-60
2023/09/22 08:42:34;;;;;;;87.00;80.70;;;;;;;;;;5031298;28;20028;-59
2023/09/22 08:45:00;;;;;;;81.55;76.65;;;;;;;;;;5031624;28;20018;-58
2023/09/22 08:47:25;;;;;;;151.15;141.02;;;;;;;;;;5031133;28;20148;-61
2023/09/22 08:49:50;;;;;;;148.33;138.27;;;;;;;;;;5017762;28;20025;-60
2023/09/22 08:52:15;;;;;;;98.27;92.03;;;;;;;;;;5011431;28;20084;-61
2023/09/22 08:54:41;;;;;;;106.80;99.68;;;;;;;;;;5017637;28;20030;-59
2023/09/22 08:57:06;;;;;;;159.73;148.50;;;;;;;;;;5026037;28;20028;-59
2023/09/22 08:59:31;;;;;;;162.70;151.57;;;;;;;;;;5022560;28;20076;-61
2023/09/22 09:01:58;;;;;;;140.63;131.90;;;;;;;;;;5010226;28;20026;-59
2023/09/22 09:04:33;;;;;;;129.50;120.63;;;;;;;;;;5006500;28;20100;-59
2023/09/22 09:06:58;;;;;;;150.25;139.70;;;;;;;;;;5018360;28;20022;-60
2023/09/22 09:09:24;;;;;;;95.25;88.97;;;;;;;;;;5027566;28;20025;-59
2023/09/22 09:11:59;;;;;;;134.60;126.07;;;;;;;;;;5030963;28;20021;-60
2023/09/22 09:14:28;;;;;;;132.75;123.00;;;;;;;;;;5031300;28;20444;-60
2023/09/22 09:16:53;;;;;;;185.60;172.52;;;;;;;;;;5015991;28;20025;-60
2023/09/22 09:19:20;;;;;;;137.37;128.43;;;;;;;;;;5021740;28;20401;-60
2023/09/22 09:22:12;;;;;;;115.45;106.93;;;;;;;;;;5027976;28;20108;-59
2023/09/22 09:24:38;;;;;;;62.33;58.45;;;;;;;;;;5021211;28;20025;-59
2023/09/22 09:27:19;;;;;;;116.20;108.07;;;;;;;;;;5030896;28;20060;-59
2023/09/22 09:29:45;;;;;;;137.38;128.30;;;;;;;;;;5032238;28;20100;-59
2023/09/22 09:32:11;;;;;;;;;;;;;;;;;;5024394;28;20381;-59
2023/09/22 09:34:40;;;;;;;101.30;95.60;;;;;;;;;;5023195;28;19905;-59
2023/09/22 09:37:12;;;;;;;126.72;119.03;;;;;;;;;;5014205;28;20049;-60
2023/09/22 09:39:45;;;;;;;111.50;104.28;;;;;;;;;;5024894;28;20053;-60
2023/09/22 09:42:13;;;;;;;126.05;118.70;;;;;;;;;;5024114;28;20432;-59
2023/09/22 09:44:40;;;;;;;120.78;112.47;;;;;;;;;;5015300;28;20028;-59
2023/09/22 09:47:07;;;;;;;102.50;95.55;;;;;;;;;;5020045;28;20025;-61
2023/09/22 09:49:33;;;;;;;74.20;69.43;;;;;;;;;;5025900;28;20048;-60
2023/09/22 09:51:59;;;;;;;103.13;96.65;;;;;;;;;;5031291;28;20485;-59
2023/09/22 09:54:24;;;;;;;;;;;;;;;;;;5024017;28;20026;-61
2023/09/22 09:56:51;;;;;;;134.98;125.95;;;;;;;;;;5034350;28;19905;-60
2023/09/22 09:59:17;;;;;;;55.17;51.80;;;;;;;;;;5033894;28;20037;-59
2023/09/22 10:01:42;;;;;;;74.57;69.70;;;;;;;;;;5030450;28;20509;-59
2023/09/22 10:04:09;;;;;;;91.20;85.37;;;;;;;;;;5023764;28;20022;-59
2023/09/22 10:06:35;;;;;;;112.15;105.20;;;;;;;;;;5036574;28;20014;-59
2023/09/22 10:09:00;;;;;;;73.55;68.75;;;;;;;;;;5036720;28;20025;-58
2023/09/22 10:11:26;;;;;;;45.60;42.80;;;;;;;;;;5034547;28;20021;-60
2023/09/22 10:13:51;;;;;;;120.82;113.18;;;;;;;;;;5014838;28;20045;-60
2023/09/22 10:16:36;;;;;;;56.10;52.50;;;;;;;;;;5022187;28;20049;-61
2023/09/22 10:19:02;;;;;;;85.22;79.80;;;;;;;;;;5014749;28;20535;-60
2023/09/22 10:21:31;;;;;;;120.57;112.47;;;;;;;;;;5031752;28;20056;-61
2023/09/22 10:24:15;;;;;;;147.48;137.95;;;;;;;;;;5029877;28;20024;-61
2023/09/22 10:27:06;;;;;;;124.38;115.72;;;;;;;;;;5022286;28;20034;-60
2023/09/22 10:29:37;;;;;;;100.10;93.90;;;;;;;;;;5024792;28;20041;-61
2023/09/22 10:32:18;;;;;;;142.57;133.85;;;;;;;;;;5024611;28;20112;-61
2023/09/22 10:34:53;;;;;;;111.10;104.07;;;;;;;;;;5008380;28;20026;-61
2023/09/22 10:37:19;;;;;;;126.18;117.22;;;;;;;;;;5014401;28;20160;-60
2023/09/22 10:39:49;;;;;;;85.68;80.53;;;;;;;;;;5023241;28;20030;-59
2023/09/22 10:42:14;;;;;;;113.63;106.75;;;;;;;;;;5015374;28;20037;-61
2023/09/22 10:45:02;;;;;;;85.23;79.83;;;;;;;;;;5021274;28;20017;-61
2023/09/22 10:47:41;;;;;;;136.40;127.15;;;;;;;;;;5021518;28;20033;-60
2023/09/22 10:50:12;;;;;;;107.25;100.57;;;;;;;;;;5007865;28;20018;-61
2023/09/22 10:52:37;;;;;;;144.77;130.20;;;;;;;;;;5021126;28;20084;-60
2023/09/22 10:55:05;;;;;;;125.20;117.32;;;;;;;;;;5016152;28;22012;-61
2023/09/22 10:57:30;;;;;;;139.02;129.80;;;;;;;;;;5017536;28;20018;-61
2023/09/22 10:59:56;;;;;;;86.67;81.40;;;;;;;;;;5010974;28;20402;-60
2023/09/22 11:02:25;;;;;;;89.47;83.97;;;;;;;;;;5013867;28;20975;-60
2023/09/22 11:04:50;;;;;;;164.60;153.52;;;;;;;;;;5017143;28;20416;-61
2023/09/22 11:07:31;;;;;;;102.83;96.47;;;;;;;;;;5025082;28;20033;-61
2023/09/22 11:09:57;;;;;;;144.60;135.32;;;;;;;;;;5033410;28;20018;-61
2023/09/22 11:12:22;;;;;;;141.30;130.32;;;;;;;;;;5034461;28;20234;-60
2023/09/22 11:14:48;;;;;;;103.38;95.75;;;;;;;;;;5033141;28;20084;-61
2023/09/22 11:17:14;;;;;;;81.87;76.53;;;;;;;;;;5033165;28;20053;-60
2023/09/22 11:19:49;;;;;;;135.25;126.00;;;;;;;;;;5025873;28;20039;-61
2023/09/22 11:22:14;;;;;;;141.32;130.27;;;;;;;;;;5017813;28;20037;-60
2023/09/22 11:24:39;;;;;;;71.17;67.10;;;;;;;;;;5013186;28;20486;-60
2023/09/22 11:27:05;;;;;;;137.07;128.33;;;;;;;;;;5012936;28;20083;-60
2023/09/22 11:29:31;;;;;;;117.68;110.22;;;;;;;;;;5012704;28;20029;-60
2023/09/22 11:31:57;;;;;;;132.27;123.10;;;;;;;;;;5005205;28;20017;-60
2023/09/22 11:34:23;;;;;;;128.55;119.90;;;;;;;;;;5009788;28;20025;-59
2023/09/22 11:36:51;;;;;;;102.45;96.50;;;;;;;;;;5024196;28;20477;-60
2023/09/22 11:39:34;;;;;;;150.98;140.73;;;;;;;;;;5032202;28;20029;-59
2023/09/22 11:42:01;;;;;;;107.13;100.53;;;;;;;;;;5032724;28;20045;-61
2023/09/22 11:44:26;;;;;;;101.13;93.65;;;;;;;;;;5032608;28;20604;-60
2023/09/22 11:46:52;;;;;;;165.30;153.43;;;;;;;;;;5032834;28;20040;-60
2023/09/22 11:49:18;;;;;;;137.23;127.78;;;;;;;;;;5019737;28;20022;-60
2023/09/22 11:51:48;;;;;;;95.63;89.30;;;;;;;;;;4992484;28;20022;-62
2023/09/22 11:54:14;;;;;;;162.43;151.80;;;;;;;;;;4992064;28;20486;-59
2023/09/22 11:56:40;;;;;;;109.80;101.22;;;;;;;;;;4993116;28;20026;-59
2023/09/22 11:59:12;;;;;;;150.45;137.20;;;;;;;;;;4991830;28;20034;-61
2023/09/22 12:01:37;;;;;;;60.83;57.22;;;;;;;;;;4999293;28;20512;-61
2023/09/22 12:04:06;;;;;;;147.00;135.38;;;;;;;;;;5017154;28;20029;-59
2023/09/22 12:06:31;;;;;;;77.18;72.38;;;;;;;;;;5022246;28;20064;-61
2023/09/22 12:08:57;;;;;;;139.40;129.45;;;;;;;;;;5030916;28;20072;-59
2023/09/22 12:11:23;;;;;;;120.43;109.65;;;;;;;;;;5031742;28;20025;-60
2023/09/22 12:13:48;;;;;;;71.15;66.22;;;;;;;;;;5031988;28;20037;-60
2023/09/22 12:16:13;;;;;;;58.90;55.57;;;;;;;;;;5031450;28;20037;-60
2023/09/22 12:18:38;;;;;;;98.97;92.63;;;;;;;;;;5024054;28;20034;-60
2023/09/22 12:21:04;;;;;;;52.65;48.90;;;;;;;;;;5018916;28;20062;-60
2023/09/22 12:23:29;;;;;;;103.10;96.40;;;;;;;;;;5020694;28;20030;-60
2023/09/22 12:25:54;;;;;;;80.20;75.23;;;;;;;;;;5025122;28;20061;-60
2023/09/22 12:28:19;;;;;;;82.17;77.37;;;;;;;;;;5021770;28;20485;-60
2023/09/22 12:30:44;;;;;;;102.33;95.90;;;;;;;;;;5008896;28;20018;-60
2023/09/22 12:33:10;;;;;;;121.63;113.87;;;;;;;;;;5010874;28;20014;-60
2023/09/22 12:35:35;;;;;;;67.68;63.10;;;;;;;;;;5011887;28;20029;-60
2023/09/22 12:38:00;;;;;;;176.27;163.83;;;;;;;;;;5021107;28;20385;-60
2023/09/22 12:40:26;;;;;;;90.27;85.00;;;;;;;;;;5015681;28;20034;-60
2023/09/22 12:42:52;;;;;;;74.53;69.27;;;;;;;;;;5011630;28;20474;-59
2023/09/22 12:45:19;;;;;;;69.90;65.60;;;;;;;;;;5010455;28;20432;-60
2023/09/22 12:47:44;;;;;;;66.70;62.83;;;;;;;;;;5011214;28;20084;-61
2023/09/22 12:50:10;;;;;;;90.00;84.17;;;;;;;;;;5010844;28;20062;-60
2023/09/22 12:52:36;;;;;;;65.88;62.10;;;;;;;;;;5008487;28;20030;-60
2023/09/22 12:55:02;;;;;;;102.22;95.72;;;;;;;;;;5007634;28;20071;-60
2023/09/22 12:57:28;;;;;;;123.82;115.85;;;;;;;;;;5009566;28;20476;-60
2023/09/22 12:59:53;;;;;;;60.40;56.85;;;;;;;;;;5010430;28;20028;-60
2023/09/22 13:02:18;;;;;;;103.70;96.70;;;;;;;;;;5004652;28;20106;-58
2023/09/22 13:04:45;;;;;;;100.47;95.10;;;;;;;;;;5010918;28;20793;-59
2023/09/22 13:07:10;;;;;;;99.53;92.25;;;;;;;;;;5005318;28;20058;-61
2023/09/22 13:09:35;;;;;;;93.10;86.97;;;;;;;;;;5010454;28;20045;-59
2023/09/22 13:12:02;;;;;;;97.80;90.63;;;;;;;;;;5008471;28;20025;-60
2023/09/22 13:14:27;;;;;;;100.53;94.05;;;;;;;;;;5009250;28;20440;-59
2023/09/22 13:16:53;;;;;;;88.75;81.22;;;;;;;;;;5003422;28;20030;-60
2023/09/22 13:19:18;;;;;;;108.90;101.15;;;;;;;;;;5004916;28;20084;-58
2023/09/22 13:21:43;;;;;;;55.47;52.20;;;;;;;;;;5008316;28;20026;-61
2023/09/22 13:24:08;;;;;;;83.07;76.73;;;;;;;;;;5005105;28;20089;-59
2023/09/22 13:26:33;;;;;;;61.43;57.90;;;;;;;;;;5010820;28;20029;-58
2023/09/22 13:28:59;;;;;;;82.37;76.90;;;;;;;;;;5011095;28;20030;-59
2023/09/22 13:31:25;;;;;;;119.47;111.25;;;;;;;;;;5004609;28;20215;-58
2023/09/22 13:33:50;;;;;;;141.10;131.93;;;;;;;;;;5006285;28;20057;-60
2023/09/22 13:36:16;;;;;;;130.53;120.27;;;;;;;;;;5010213;28;20033;-60
2023/09/22 13:38:42;;;;;;;114.65;107.43;;;;;;;;;;5012585;28;20052;-59
2023/09/22 13:41:11;;;;;;;80.38;75.90;;;;;;;;;;5001958;28;20480;-58
2023/09/22 13:43:36;;;;;;;63.58;59.72;;;;;;;;;;5005559;28;20025;-60
2023/09/22 13:46:07;;;;;;;139.00;129.37;;;;;;;;;;5011154;28;20033;-60
2023/09/22 13:48:33;;;;;;;189.35;174.88;;;;;;;;;;4999051;28;20465;-60
2023/09/22 13:50:58;;;;;;;91.40;85.47;;;;;;;;;;5005173;28;20040;-60
2023/09/22 13:53:23;;;;;;;107.83;100.93;;;;;;;;;;5004832;28;20045;-60
2023/09/22 13:55:49;;;;;;;119.20;111.67;;;;;;;;;;5004262;28;20536;-58
2023/09/22 13:58:14;;;;;;;86.38;81.45;;;;;;;;;;5005348;28;20397;-60
2023/09/22 14:00:39;;;;;;;84.07;79.20;;;;;;;;;;5000433;28;20041;-59
2023/09/22 14:03:04;;;;;;;72.07;67.95;;;;;;;;;;5005164;28;20064;-60
2023/09/22 14:05:31;;;;;;;217.88;203.50;;;;;;;;;;5004358;28;20030;-59
2023/09/22 14:07:57;;;;;;;85.13;80.03;;;;;;;;;;5003934;28;20038;-60